sensor_id;sensor_type;location;lat;lon;timestamp;pressure;altitude;pressure_sealevel;temperature;humidity
7018;BME280;3549;42.162;24.726;2023-08-06T00:00:08;47434.50;;;-141.97;71.54
7018;BME280;3549;42.162;24.726;2023-08-06T00:02:34;47401.84;;;-141.97;71.86
7018;BME280;3549;42.162;24.726;2023-08-06T00:04:59;47373.00;;;-141.97;71.98
7018;BME280;3549;42.162;24.726;2023-08-06T00:07:24;47426.81;;;-141.97;71.96
7018;BME280;3549;42.162;24.726;2023-08-06T00:09:50;47419.13;;;-141.97;72.03
7018;BME280;3549;42.162;24.726;2023-08-06T00:12:15;47374.94;;;-141.97;72.81
7018;BME280;3549;42.162;24.726;2023-08-06T00:14:40;47409.53;;;-141.97;73.07
7018;BME280;3549;42.162;24.726;2023-08-06T00:17:06;47653.63;;;-141.97;72.90
7018;BME280;3549;42.162;24.726;2023-08-06T00:19:32;47421.06;;;-141.97;74.36
7018;BME280;3549;42.162;24.726;2023-08-06T00:21:57;47424.91;;;-141.97;74.89
7018;BME280;3549;42.162;24.726;2023-08-06T00:24:23;47444.13;;;-141.97;75.15
7018;BME280;3549;42.162;24.726;2023-08-06T00:26:48;47422.97;;;-141.97;75.22
7018;BME280;3549;42.162;24.726;2023-08-06T00:29:14;47657.47;;;-141.97;75.36
7018;BME280;3549;42.162;24.726;2023-08-06T00:31:39;47569.06;;;-141.97;76.54
7018;BME280;3549;42.162;24.726;2023-08-06T00:34:04;47453.72;;;-141.97;76.58
7018;BME280;3549;42.162;24.726;2023-08-06T00:36:30;47509.47;;;-141.97;77.02
7018;BME280;3549;42.162;24.726;2023-08-06T00:38:55;47346.09;;;-141.97;77.16
7018;BME280;3549;42.162;24.726;2023-08-06T00:41:21;47447.97;;;-141.97;77.35
7018;BME280;3549;42.162;24.726;2023-08-06T00:43:46;47588.28;;;-141.97;77.96
7018;BME280;3549;42.162;24.726;2023-08-06T00:46:12;47426.81;;;-141.97;77.63
7018;BME280;3549;42.162;24.726;2023-08-06T00:48:37;47446.03;;;-141.97;78.36
7018;BME280;3549;42.162;24.726;2023-08-06T00:51:03;47424.91;;;-141.97;78.04
7018;BME280;3549;42.162;24.726;2023-08-06T00:53:28;47417.22;;;-141.97;79.13
7018;BME280;3549;42.162;24.726;2023-08-06T00:55:54;47615.19;;;-141.97;78.82
7018;BME280;3549;42.162;24.726;2023-08-06T00:58:20;47553.69;;;-141.97;79.61
7018;BME280;3549;42.162;24.726;2023-08-06T01:00:45;47219.25;;;-141.97;79.73
7018;BME280;3549;42.162;24.726;2023-08-06T01:03:11;47465.25;;;-141.97;79.55
7018;BME280;3549;42.162;24.726;2023-08-06T01:05:36;47215.41;;;-141.97;79.75
7018;BME280;3549;42.162;24.726;2023-08-06T01:11:17;47471.03;;;-141.97;80.15
7018;BME280;3549;42.162;24.726;2023-08-06T01:13:50;47432.59;;;-141.97;79.65
7018;BME280;3549;42.162;24.726;2023-08-06T01:16:19;47519.06;;;-141.97;79.53
7018;BME280;3549;42.162;24.726;2023-08-06T01:18:47;47444.13;;;-141.97;79.32
7018;BME280;3549;42.162;24.726;2023-08-06T01:21:17;47367.25;;;-141.97;78.93
7018;BME280;3549;42.162;24.726;2023-08-06T01:23:43;47426.81;;;-141.97;77.92
7018;BME280;3549;42.162;24.726;2023-08-06T01:31:22;47446.03;;;-141.97;77.34
7018;BME280;3549;42.162;24.726;2023-08-06T01:33:48;47521.00;;;-141.97;77.25
7018;BME280;3549;42.162;24.726;2023-08-06T01:36:17;47442.19;;;-141.97;77.44
7018;BME280;3549;42.162;24.726;2023-08-06T01:38:44;47461.41;;;-141.97;77.26
7018;BME280;3549;42.162;24.726;2023-08-06T01:41:10;47582.50;;;-141.97;77.98
7018;BME280;3549;42.162;24.726;2023-08-06T01:43:35;47273.06;;;-141.97;78.53
7018;BME280;3549;42.162;24.726;2023-08-06T01:46:00;47446.03;;;-141.97;78.78
7018;BME280;3549;42.162;24.726;2023-08-06T01:48:26;47403.75;;;-141.97;78.84
7018;BME280;3549;42.162;24.726;2023-08-06T01:50:51;47157.75;;;-141.97;79.08
7018;BME280;3549;42.162;24.726;2023-08-06T01:53:17;47565.22;;;-141.97;78.45
7018;BME280;3549;42.162;24.726;2023-08-06T01:55:42;47169.28;;;-141.97;78.76
7018;BME280;3549;42.162;24.726;2023-08-06T01:58:12;47449.88;;;-141.97;78.51
7018;BME280;3549;42.162;24.726;2023-08-06T02:00:37;47461.41;;;-141.97;77.71
7018;BME280;3549;42.162;24.726;2023-08-06T02:03:03;47503.69;;;-141.97;77.14
7018;BME280;3549;42.162;24.726;2023-08-06T02:05:28;47463.34;;;-141.97;76.30
7018;BME280;3549;42.162;24.726;2023-08-06T02:07:54;47446.03;;;-141.97;76.47
7018;BME280;3549;42.162;24.726;2023-08-06T02:10:19;47251.94;;;-141.97;75.98
7018;BME280;3549;42.162;24.726;2023-08-06T02:12:44;47570.97;;;-141.97;75.93
7018;BME280;3549;42.162;24.726;2023-08-06T02:15:10;47203.88;;;-141.97;76.06
7018;BME280;3549;42.162;24.726;2023-08-06T02:17:35;47417.22;;;-141.97;76.09
7018;BME280;3549;42.162;24.726;2023-08-06T02:20:00;47422.97;;;-141.97;75.69
7018;BME280;3549;42.162;24.726;2023-08-06T02:22:26;47449.88;;;-141.97;76.15
7018;BME280;3549;42.162;24.726;2023-08-06T02:24:52;47457.56;;;-141.97;76.21
7018;BME280;3549;42.162;24.726;2023-08-06T02:27:17;47428.75;;;-141.97;76.09
7018;BME280;3549;42.162;24.726;2023-08-06T02:29:42;47428.75;;;-141.97;76.08
7018;BME280;3549;42.162;24.726;2023-08-06T02:32:08;47461.41;;;-141.97;76.33
7018;BME280;3549;42.162;24.726;2023-08-06T02:34:33;47407.59;;;-141.97;76.38
7018;BME280;3549;42.162;24.726;2023-08-06T02:36:59;47644.00;;;-141.97;76.02
7018;BME280;3549;42.162;24.726;2023-08-06T02:39:24;47446.03;;;-141.97;76.08
7018;BME280;3549;42.162;24.726;2023-08-06T02:41:50;47599.81;;;-141.97;76.05
7018;BME280;3549;42.162;24.726;2023-08-06T02:44:16;47442.19;;;-141.97;75.67
7018;BME280;3549;42.162;24.726;2023-08-06T02:46:41;47622.88;;;-141.97;75.62
7018;BME280;3549;42.162;24.726;2023-08-06T02:49:06;47307.66;;;-141.97;75.74
7018;BME280;3549;42.162;24.726;2023-08-06T02:51:32;47471.03;;;-141.97;75.92
7018;BME280;3549;42.162;24.726;2023-08-06T02:53:57;47469.09;;;-141.97;76.25
7018;BME280;3549;42.162;24.726;2023-08-06T02:56:23;47549.84;;;-141.97;75.76
7018;BME280;3549;42.162;24.726;2023-08-06T02:58:48;47453.72;;;-141.97;75.15
7018;BME280;3549;42.162;24.726;2023-08-06T03:01:13;47444.13;;;-141.97;75.66
7018;BME280;3549;42.162;24.726;2023-08-06T03:03:39;47321.13;;;-141.97;74.98
7018;BME280;3549;42.162;24.726;2023-08-06T03:06:04;47455.66;;;-141.97;75.58
7018;BME280;3549;42.162;24.726;2023-08-06T03:08:30;47461.41;;;-141.97;76.46
7018;BME280;3549;42.162;24.726;2023-08-06T03:10:56;47317.28;;;-141.97;76.78
7018;BME280;3549;42.162;24.726;2023-08-06T03:13:21;47457.56;;;-141.97;77.33
7018;BME280;3549;42.162;24.726;2023-08-06T03:15:57;47334.56;;;-141.97;77.02
7018;BME280;3549;42.162;24.726;2023-08-06T03:18:22;47449.88;;;-141.97;76.58
7018;BME280;3549;42.162;24.726;2023-08-06T03:20:48;47684.38;;;-141.97;76.60
7018;BME280;3549;42.162;24.726;2023-08-06T03:23:14;47453.72;;;-141.97;76.64
7018;BME280;3549;42.162;24.726;2023-08-06T03:25:39;47369.16;;;-141.97;76.47
7018;BME280;3549;42.162;24.726;2023-08-06T03:28:04;47576.75;;;-141.97;76.96
7018;BME280;3549;42.162;24.726;2023-08-06T03:30:30;47392.22;;;-141.97;77.40
7018;BME280;3549;42.162;24.726;2023-08-06T03:32:55;47576.75;;;-141.97;77.10
7018;BME280;3549;42.162;24.726;2023-08-06T03:35:21;47357.63;;;-141.97;77.85
7018;BME280;3549;42.162;24.726;2023-08-06T03:37:46;47401.84;;;-141.97;77.89
7018;BME280;3549;42.162;24.726;2023-08-06T03:40:11;47434.50;;;-141.97;78.25
7018;BME280;3549;42.162;24.726;2023-08-06T03:42:37;47447.97;;;-141.97;78.85
7018;BME280;3549;42.162;24.726;2023-08-06T03:45:02;47476.78;;;-141.97;79.00
7018;BME280;3549;42.162;24.726;2023-08-06T03:47:28;47461.41;;;-141.97;78.10
7018;BME280;3549;42.162;24.726;2023-08-06T03:49:53;47559.44;;;-141.97;78.02
7018;BME280;3549;42.162;24.726;2023-08-06T03:52:19;47476.78;;;-141.97;77.75
7018;BME280;3549;42.162;24.726;2023-08-06T03:54:44;47442.19;;;-141.97;77.40
7018;BME280;3549;42.162;24.726;2023-08-06T03:57:09;47319.19;;;-141.97;77.74
7018;BME280;3549;42.162;24.726;2023-08-06T03:59:35;47434.50;;;-141.97;77.47
7018;BME280;3549;42.162;24.726;2023-08-06T04:02:01;47221.19;;;-141.97;77.53
7018;BME280;3549;42.162;24.726;2023-08-06T04:04:26;47467.19;;;-141.97;77.91
7018;BME280;3549;42.162;24.726;2023-08-06T04:06:52;47465.25;;;-141.97;78.02
7018;BME280;3549;42.162;24.726;2023-08-06T04:09:17;47430.66;;;-141.97;78.97
7018;BME280;3549;42.162;24.726;2023-08-06T04:11:42;47499.84;;;-141.97;78.65
7018;BME280;3549;42.162;24.726;2023-08-06T04:14:08;47463.34;;;-141.97;78.88
7018;BME280;3549;42.162;24.726;2023-08-06T04:16:33;47622.88;;;-141.97;77.98
7018;BME280;3549;42.162;24.726;2023-08-06T04:18:58;47484.47;;;-141.97;77.58
7018;BME280;3549;42.162;24.726;2023-08-06T04:21:24;47692.06;;;-141.97;78.23
7018;BME280;3549;42.162;24.726;2023-08-06T04:23:49;47461.41;;;-141.97;77.88
7018;BME280;3549;42.162;24.726;2023-08-06T04:26:15;47472.94;;;-141.97;77.33
7018;BME280;3549;42.162;24.726;2023-08-06T04:28:40;47615.19;;;-141.97;77.53
7018;BME280;3549;42.162;24.726;2023-08-06T04:31:06;47532.53;;;-141.97;76.74
7018;BME280;3549;42.162;24.726;2023-08-06T04:33:31;47676.69;;;-141.97;76.70
7018;BME280;3549;42.162;24.726;2023-08-06T04:35:57;47453.72;;;-141.97;76.51
7018;BME280;3549;42.162;24.726;2023-08-06T04:38:25;47405.69;;;-141.97;76.49
7018;BME280;3549;42.162;24.726;2023-08-06T04:40:51;47273.06;;;-141.97;76.53
7018;BME280;3549;42.162;24.726;2023-08-06T04:43:17;47361.47;;;-141.97;76.11
7018;BME280;3549;42.162;24.726;2023-08-06T04:45:46;47349.94;;;-141.97;75.43
7018;BME280;3549;42.162;24.726;2023-08-06T04:48:12;47655.53;;;-141.97;74.68
7018;BME280;3549;42.162;24.726;2023-08-06T04:50:38;47480.63;;;-141.97;74.22
7018;BME280;3549;42.162;24.726;2023-08-06T04:53:03;47336.50;;;-141.97;73.65
7018;BME280;3549;42.162;24.726;2023-08-06T04:55:29;47213.50;;;-141.97;73.11
7018;BME280;3549;42.162;24.726;2023-08-06T04:57:54;47373.00;;;-141.97;74.00
7018;BME280;3549;42.162;24.726;2023-08-06T05:00:19;47446.03;;;-141.97;73.92
7018;BME280;3549;42.162;24.726;2023-08-06T05:02:45;47453.72;;;-141.97;74.03
7018;BME280;3549;42.162;24.726;2023-08-06T05:05:10;47636.31;;;-141.97;74.34
7018;BME280;3549;42.162;24.726;2023-08-06T05:07:41;47424.91;;;-141.97;75.30
7018;BME280;3549;42.162;24.726;2023-08-06T05:10:06;47484.47;;;-141.97;75.01
7018;BME280;3549;42.162;24.726;2023-08-06T05:12:32;47344.19;;;-141.97;74.39
7018;BME280;3549;42.162;24.726;2023-08-06T05:14:57;47388.38;;;-141.97;73.44
7018;BME280;3549;42.162;24.726;2023-08-06T05:17:23;47203.88;;;-141.97;73.78
7018;BME280;3549;42.162;24.726;2023-08-06T05:19:49;47695.91;;;-141.97;73.76
7018;BME280;3549;42.162;24.726;2023-08-06T05:22:14;47184.66;;;-141.97;74.07
7018;BME280;3549;42.162;24.726;2023-08-06T05:24:40;47363.41;;;-141.97;74.95
7018;BME280;3549;42.162;24.726;2023-08-06T05:27:05;47588.28;;;-141.97;76.12
7018;BME280;3549;42.162;24.726;2023-08-06T05:29:31;47438.34;;;-141.97;77.79
7018;BME280;3549;42.162;24.726;2023-08-06T05:31:56;47284.59;;;-141.97;77.50
7018;BME280;3549;42.162;24.726;2023-08-06T05:34:21;47324.97;;;-141.97;77.64
7018;BME280;3549;42.162;24.726;2023-08-06T05:36:47;47695.91;;;-141.97;76.43
7018;BME280;3549;42.162;24.726;2023-08-06T05:39:12;47421.06;;;-141.97;78.97
7018;BME280;3549;42.162;24.726;2023-08-06T05:41:38;47695.91;;;-141.97;80.27
7018;BME280;3549;42.162;24.726;2023-08-06T05:44:03;47570.97;;;-141.97;80.72
7018;BME280;3549;42.162;24.726;2023-08-06T05:46:28;47511.38;;;-141.97;81.04
7018;BME280;3549;42.162;24.726;2023-08-06T05:48:54;47494.09;;;-141.97;81.83
7018;BME280;3549;42.162;24.726;2023-08-06T05:51:19;47522.91;;;-141.97;82.70
7018;BME280;3549;42.162;24.726;2023-08-06T05:53:45;47494.09;;;-141.97;83.54
7018;BME280;3549;42.162;24.726;2023-08-06T05:56:12;47398.00;;;-141.97;81.87
7018;BME280;3549;42.162;24.726;2023-08-06T05:58:37;47515.22;;;-141.97;83.17
7018;BME280;3549;42.162;24.726;2023-08-06T06:01:03;47465.25;;;-141.97;83.54
7018;BME280;3549;42.162;24.726;2023-08-06T06:03:28;47519.06;;;-141.97;85.29
7018;BME280;3549;42.162;24.726;2023-08-06T06:05:53;47488.31;;;-141.97;85.55
7018;BME280;3549;42.162;24.726;2023-08-06T06:08:19;47434.50;;;-141.97;85.52
7018;BME280;3549;42.162;24.726;2023-08-06T06:10:44;47515.22;;;-141.97;85.50
7018;BME280;3549;42.162;24.726;2023-08-06T06:13:10;47486.41;;;-141.97;85.99
7018;BME280;3549;42.162;24.726;2023-08-06T06:15:35;47511.38;;;-141.97;82.94
7018;BME280;3549;42.162;24.726;2023-08-06T06:18:00;47503.69;;;-141.97;82.74
7018;BME280;3549;42.162;24.726;2023-08-06T06:20:26;47553.69;;;-141.97;85.08
7018;BME280;3549;42.162;24.726;2023-08-06T06:22:51;47522.91;;;-141.97;84.75
7018;BME280;3549;42.162;24.726;2023-08-06T06:25:16;47526.75;;;-141.97;82.98
7018;BME280;3549;42.162;24.726;2023-08-06T06:27:42;47509.47;;;-141.97;85.07
7018;BME280;3549;42.162;24.726;2023-08-06T06:30:08;47522.91;;;-141.97;84.61
7018;BME280;3549;42.162;24.726;2023-08-06T06:32:33;47680.53;;;-141.97;83.70
7018;BME280;3549;42.162;24.726;2023-08-06T06:35:01;47499.84;;;-141.97;81.58
7018;BME280;3549;42.162;24.726;2023-08-06T06:37:27;47544.06;;;-141.97;79.78
7018;BME280;3549;42.162;24.726;2023-08-06T06:39:52;47461.41;;;-141.97;80.87
7018;BME280;3549;42.162;24.726;2023-08-06T06:42:18;47538.28;;;-141.97;79.63
7018;BME280;3549;42.162;24.726;2023-08-06T06:44:43;47492.16;;;-141.97;79.06
7018;BME280;3549;42.162;24.726;2023-08-06T06:47:08;47517.16;;;-141.97;78.10
7018;BME280;3549;42.162;24.726;2023-08-06T06:49:34;47496.00;;;-141.97;78.60
7018;BME280;3549;42.162;24.726;2023-08-06T06:51:59;47509.47;;;-141.97;78.84
7018;BME280;3549;42.162;24.726;2023-08-06T06:54:25;47494.09;;;-141.97;78.66
7018;BME280;3549;42.162;24.726;2023-08-06T06:56:50;47515.22;;;-141.97;78.63
7018;BME280;3549;42.162;24.726;2023-08-06T06:59:15;47509.47;;;-141.97;78.78
7018;BME280;3549;42.162;24.726;2023-08-06T07:01:41;47546.00;;;-141.97;79.46
7018;BME280;3549;42.162;24.726;2023-08-06T07:04:06;47511.38;;;-141.97;79.84
7018;BME280;3549;42.162;24.726;2023-08-06T07:06:31;47472.94;;;-141.97;79.73
7018;BME280;3549;42.162;24.726;2023-08-06T07:08:57;47530.59;;;-141.97;79.54
7018;BME280;3549;42.162;24.726;2023-08-06T07:11:22;47513.31;;;-141.97;78.85
7018;BME280;3549;42.162;24.726;2023-08-06T07:13:50;47499.84;;;-141.97;78.03
7018;BME280;3549;42.162;24.726;2023-08-06T07:16:20;47534.44;;;-141.97;78.66
7018;BME280;3549;42.162;24.726;2023-08-06T07:18:46;47509.47;;;-141.97;78.16
7018;BME280;3549;42.162;24.726;2023-08-06T07:21:11;47472.94;;;-141.97;76.66
7018;BME280;3549;42.162;24.726;2023-08-06T07:23:37;47595.97;;;-141.97;74.03
7018;BME280;3549;42.162;24.726;2023-08-06T07:26:02;47490.25;;;-141.97;73.91
7018;BME280;3549;42.162;24.726;2023-08-06T07:28:27;47519.06;;;-141.97;72.13
7018;BME280;3549;42.162;24.726;2023-08-06T07:30:53;47478.72;;;-141.97;71.57
7018;BME280;3549;42.162;24.726;2023-08-06T07:33:18;47490.25;;;-141.97;70.63
7018;BME280;3549;42.162;24.726;2023-08-06T07:35:43;47499.84;;;-141.97;72.80
7018;BME280;3549;42.162;24.726;2023-08-06T07:38:09;47494.09;;;-141.97;72.79
7018;BME280;3549;42.162;24.726;2023-08-06T07:40:38;47684.38;;;-141.97;71.31
7018;BME280;3549;42.162;24.726;2023-08-06T07:43:03;47511.38;;;-141.97;70.76
7018;BME280;3549;42.162;24.726;2023-08-06T07:45:33;47480.63;;;-141.97;69.25
7018;BME280;3549;42.162;24.726;2023-08-06T07:47:59;47474.88;;;-141.97;70.20
7018;BME280;3549;42.162;24.726;2023-08-06T07:50:24;47459.50;;;-141.97;71.72
7018;BME280;3549;42.162;24.726;2023-08-06T07:52:49;47480.63;;;-141.97;72.06
7018;BME280;3549;42.162;24.726;2023-08-06T07:55:15;47515.22;;;-141.97;73.04
7018;BME280;3549;42.162;24.726;2023-08-06T07:57:40;47521.00;;;-141.97;73.71
7018;BME280;3549;42.162;24.726;2023-08-06T08:00:06;47467.19;;;-141.97;74.60
7018;BME280;3549;42.162;24.726;2023-08-06T08:02:32;47480.63;;;-141.97;75.96
7018;BME280;3549;42.162;24.726;2023-08-06T08:04:57;47472.94;;;-141.97;75.98
7018;BME280;3549;42.162;24.726;2023-08-06T08:07:23;47549.84;;;-141.97;75.89
7018;BME280;3549;42.162;24.726;2023-08-06T08:09:48;47515.22;;;-141.97;76.23
7018;BME280;3549;42.162;24.726;2023-08-06T08:12:13;47503.69;;;-141.97;75.93
7018;BME280;3549;42.162;24.726;2023-08-06T08:14:39;47496.00;;;-141.97;76.44
7018;BME280;3549;42.162;24.726;2023-08-06T08:17:05;47480.63;;;-141.97;76.71
7018;BME280;3549;42.162;24.726;2023-08-06T08:19:31;47503.69;;;-141.97;77.20
7018;BME280;3549;42.162;24.726;2023-08-06T08:21:57;47447.97;;;-141.97;77.03
7018;BME280;3549;42.162;24.726;2023-08-06T08:24:23;47511.38;;;-141.97;76.95
7018;BME280;3549;42.162;24.726;2023-08-06T08:26:52;47496.00;;;-141.97;76.51
7018;BME280;3549;42.162;24.726;2023-08-06T08:29:19;47472.94;;;-141.97;76.24
7018;BME280;3549;42.162;24.726;2023-08-06T08:31:45;47511.38;;;-141.97;75.96
7018;BME280;3549;42.162;24.726;2023-08-06T08:34:14;47496.00;;;-141.97;76.47
7018;BME280;3549;42.162;24.726;2023-08-06T08:36:39;47511.38;;;-141.97;76.20
7018;BME280;3549;42.162;24.726;2023-08-06T08:39:04;47496.00;;;-141.97;75.92
7018;BME280;3549;42.162;24.726;2023-08-06T08:41:30;47546.00;;;-141.97;75.24
7018;BME280;3549;42.162;24.726;2023-08-06T08:43:58;47461.41;;;-141.97;75.30
7018;BME280;3549;42.162;24.726;2023-08-06T08:46:26;47513.31;;;-141.97;74.22
7018;BME280;3549;42.162;24.726;2023-08-06T08:48:53;47503.69;;;-141.97;73.53
7018;BME280;3549;42.162;24.726;2023-08-06T08:51:20;47499.84;;;-141.97;72.64
7018;BME280;3549;42.162;24.726;2023-08-06T08:53:47;47496.00;;;-141.97;72.40
7018;BME280;3549;42.162;24.726;2023-08-06T08:56:13;47492.16;;;-141.97;70.34
7018;BME280;3549;42.162;24.726;2023-08-06T08:58:39;47699.75;;;-141.97;68.73
7018;BME280;3549;42.162;24.726;2023-08-06T09:01:06;47482.56;;;-141.97;67.60
7018;BME280;3549;42.162;24.726;2023-08-06T09:03:32;47459.50;;;-141.97;64.40
7018;BME280;3549;42.162;24.726;2023-08-06T09:05:59;47449.88;;;-141.97;63.47
7018;BME280;3549;42.162;24.726;2023-08-06T09:08:29;47446.03;;;-141.97;60.02
7018;BME280;3549;42.162;24.726;2023-08-06T09:10:56;47434.50;;;-141.97;58.43
7018;BME280;3549;42.162;24.726;2023-08-06T09:13:23;47430.66;;;-141.97;59.32
7018;BME280;3549;42.162;24.726;2023-08-06T09:15:48;47413.38;;;-141.97;55.46
7018;BME280;3549;42.162;24.726;2023-08-06T09:18:25;47392.22;;;-141.97;53.69
7018;BME280;3549;42.162;24.726;2023-08-06T09:20:51;47438.34;;;-141.97;53.47
7018;BME280;3549;42.162;24.726;2023-08-06T09:23:17;47392.22;;;-141.97;52.29
7018;BME280;3549;42.162;24.726;2023-08-06T09:25:42;47394.16;;;-141.97;52.95
7018;BME280;3549;42.162;24.726;2023-08-06T09:28:08;47546.00;;;-141.97;51.94
7018;BME280;3549;42.162;24.726;2023-08-06T09:30:36;47376.84;;;-141.97;51.03
7018;BME280;3549;42.162;24.726;2023-08-06T09:33:02;47409.53;;;-141.97;51.24
7018;BME280;3549;42.162;24.726;2023-08-06T09:35:29;47373.00;;;-141.97;50.88
7018;BME280;3549;42.162;24.726;2023-08-06T09:37:55;47426.81;;;-141.97;49.83
7018;BME280;3549;42.162;24.726;2023-08-06T09:40:31;47422.97;;;-141.97;50.96
7018;BME280;3549;42.162;24.726;2023-08-06T09:42:58;47422.97;;;-141.97;50.53
7018;BME280;3549;42.162;24.726;2023-08-06T09:45:28;47398.00;;;-141.97;50.32
7018;BME280;3549;42.162;24.726;2023-08-06T09:47:56;47403.75;;;-141.97;50.51
7018;BME280;3549;42.162;24.726;2023-08-06T09:50:22;47338.41;;;-141.97;48.42
7018;BME280;3549;42.162;24.726;2023-08-06T09:52:48;47603.66;;;-141.97;47.22
7018;BME280;3549;42.162;24.726;2023-08-06T09:55:14;47351.88;;;-141.97;47.17
7018;BME280;3549;42.162;24.726;2023-08-06T09:57:40;47361.47;;;-141.97;47.86
7018;BME280;3549;42.162;24.726;2023-08-06T10:00:10;47380.69;;;-141.97;47.69
7018;BME280;3549;42.162;24.726;2023-08-06T10:02:40;47236.56;;;-141.97;46.36
7018;BME280;3549;42.162;24.726;2023-08-06T10:05:09;47376.84;;;-141.97;46.01
7018;BME280;3549;42.162;24.726;2023-08-06T10:07:35;47380.69;;;-141.97;45.63
7018;BME280;3549;42.162;24.726;2023-08-06T10:10:02;47382.63;;;-141.97;45.85
7018;BME280;3549;42.162;24.726;2023-08-06T10:12:37;47369.16;;;-141.97;44.84
7018;BME280;3549;42.162;24.726;2023-08-06T10:15:08;47292.28;;;-141.97;44.24
7018;BME280;3549;42.162;24.726;2023-08-06T10:17:35;47363.41;;;-141.97;41.97
7018;BME280;3549;42.162;24.726;2023-08-06T10:20:04;47373.00;;;-141.97;42.54
7018;BME280;3549;42.162;24.726;2023-08-06T10:22:33;47388.38;;;-141.97;43.12
7018;BME280;3549;42.162;24.726;2023-08-06T10:24:59;47378.78;;;-141.97;43.56
7018;BME280;3549;42.162;24.726;2023-08-06T10:27:35;47355.72;;;-141.97;43.51
7018;BME280;3549;42.162;24.726;2023-08-06T10:30:23;47365.31;;;-141.97;43.21
7018;BME280;3549;42.162;24.726;2023-08-06T10:32:50;47353.78;;;-141.97;43.48
7018;BME280;3549;42.162;24.726;2023-08-06T10:38:19;47361.47;;;-141.97;42.07
7018;BME280;3549;42.162;24.726;2023-08-06T10:43:33;47382.63;;;-141.97;44.04
7018;BME280;3549;42.162;24.726;2023-08-06T10:46:02;47390.31;;;-141.97;42.57
7018;BME280;3549;42.162;24.726;2023-08-06T10:51:09;47371.09;;;-141.97;42.86
7018;BME280;3549;42.162;24.726;2023-08-06T10:53:35;47394.16;;;-141.97;42.38
7018;BME280;3549;42.162;24.726;2023-08-06T10:56:01;47369.16;;;-141.97;41.73
7018;BME280;3549;42.162;24.726;2023-08-06T10:58:33;47403.75;;;-141.97;42.31
7018;BME280;3549;42.162;24.726;2023-08-06T11:00:59;47357.63;;;-141.97;42.14
7018;BME280;3549;42.162;24.726;2023-08-06T11:03:26;47388.38;;;-141.97;42.05
7018;BME280;3549;42.162;24.726;2023-08-06T11:05:52;47319.19;;;-141.97;41.13
7018;BME280;3549;42.162;24.726;2023-08-06T11:08:28;47384.53;;;-141.97;40.78
7018;BME280;3549;42.162;24.726;2023-08-06T11:10:54;47351.88;;;-141.97;39.11
7018;BME280;3549;42.162;24.726;2023-08-06T11:13:22;47340.34;;;-141.97;38.67
7018;BME280;3549;42.162;24.726;2023-08-06T11:15:48;47499.84;;;-141.97;39.23
7018;BME280;3549;42.162;24.726;2023-08-06T11:18:13;47346.09;;;-141.97;39.26
7018;BME280;3549;42.162;24.726;2023-08-06T11:20:39;47348.03;;;-141.97;38.86
7018;BME280;3549;42.162;24.726;2023-08-06T11:23:05;47326.88;;;-141.97;38.62
7018;BME280;3549;42.162;24.726;2023-08-06T11:25:30;47328.81;;;-141.97;38.08
7018;BME280;3549;42.162;24.726;2023-08-06T11:27:56;47336.50;;;-141.97;38.39
7018;BME280;3549;42.162;24.726;2023-08-06T11:30:21;47307.66;;;-141.97;38.67
7018;BME280;3549;42.162;24.726;2023-08-06T11:32:47;47319.19;;;-141.97;38.03
7018;BME280;3549;42.162;24.726;2023-08-06T11:35:17;47365.31;;;-141.97;37.77
7018;BME280;3549;42.162;24.726;2023-08-06T11:37:46;47292.28;;;-141.97;37.22
7018;BME280;3549;42.162;24.726;2023-08-06T11:40:12;47296.13;;;-141.97;36.49
7018;BME280;3549;42.162;24.726;2023-08-06T11:42:39;47292.28;;;-141.97;35.14
7018;BME280;3549;42.162;24.726;2023-08-06T11:45:05;47303.81;;;-141.97;36.81
7018;BME280;3549;42.162;24.726;2023-08-06T11:47:31;47323.03;;;-141.97;37.61
7018;BME280;3549;42.162;24.726;2023-08-06T11:49:57;47338.41;;;-141.97;36.72
7018;BME280;3549;42.162;24.726;2023-08-06T11:52:23;47334.56;;;-141.97;35.94
7018;BME280;3549;42.162;24.726;2023-08-06T11:55:06;47290.38;;;-141.97;34.40
7018;BME280;3549;42.162;24.726;2023-08-06T11:57:39;47230.78;;;-141.97;34.33
7018;BME280;3549;42.162;24.726;2023-08-06T12:00:10;47338.41;;;-141.97;34.12
7018;BME280;3549;42.162;24.726;2023-08-06T12:02:39;47273.06;;;-141.97;34.35
7018;BME280;3549;42.162;24.726;2023-08-06T12:05:11;47338.41;;;-141.97;34.95
7018;BME280;3549;42.162;24.726;2023-08-06T12:07:42;47303.81;;;-141.97;35.15
7018;BME280;3549;42.162;24.726;2023-08-06T12:10:08;47276.91;;;-141.97;34.65
7018;BME280;3549;42.162;24.726;2023-08-06T12:12:34;47309.59;;;-141.97;34.80
7018;BME280;3549;42.162;24.726;2023-08-06T12:15:00;47299.97;;;-141.97;34.39
7018;BME280;3549;42.162;24.726;2023-08-06T12:17:26;47284.59;;;-141.97;33.93
7018;BME280;3549;42.162;24.726;2023-08-06T12:19:51;47159.69;;;-141.97;32.83
7018;BME280;3549;42.162;24.726;2023-08-06T12:22:17;47211.56;;;-141.97;31.95
7018;BME280;3549;42.162;24.726;2023-08-06T12:24:44;47186.59;;;-141.97;31.32
7018;BME280;3549;42.162;24.726;2023-08-06T12:27:11;47203.88;;;-141.97;30.46
7018;BME280;3549;42.162;24.726;2023-08-06T12:29:47;47203.88;;;-141.97;31.03
7018;BME280;3549;42.162;24.726;2023-08-06T12:32:13;47303.81;;;-141.97;31.96
7018;BME280;3549;42.162;24.726;2023-08-06T12:34:39;47211.56;;;-141.97;32.80
7018;BME280;3549;42.162;24.726;2023-08-06T12:37:05;47296.13;;;-141.97;32.97
7018;BME280;3549;42.162;24.726;2023-08-06T12:39:33;47273.06;;;-141.97;33.96
7018;BME280;3549;42.162;24.726;2023-08-06T12:41:59;47265.38;;;-141.97;34.03
7018;BME280;3549;42.162;24.726;2023-08-06T12:44:25;47225.03;;;-141.97;34.38
7018;BME280;3549;42.162;24.726;2023-08-06T12:46:51;47250.00;;;-141.97;33.94
7018;BME280;3549;42.162;24.726;2023-08-06T12:49:17;47186.59;;;-141.97;32.33
7018;BME280;3549;42.162;24.726;2023-08-06T12:51:43;47203.88;;;-141.97;31.35
7018;BME280;3549;42.162;24.726;2023-08-06T12:54:08;47230.78;;;-141.97;31.33
7018;BME280;3549;42.162;24.726;2023-08-06T12:56:34;47180.81;;;-141.97;30.82
7018;BME280;3549;42.162;24.726;2023-08-06T12:58:59;47261.53;;;-141.97;31.94
7018;BME280;3549;42.162;24.726;2023-08-06T13:01:25;47253.84;;;-141.97;32.82